Alto Araguaia, Brazil
Current Conditions -  °F | °C
As of 6:00 AM on Monday 20 Oct 2014 (Local Time) from SBCY Reporting Station
Broken Clouds Broken Clouds  
Wind Chill: 26°   Ceiling: 10000
Heat Index: 27°   Visibility: 6mi
Dew Point: 21°   Wind: 12mph
Humidity: 74%   Direction: 50°NE
Pressure: 29.91"   Gusts: NA
Location:  17.31°S, 53.22°W
Report Text: SBCY 201000Z 05010KT 9999 SCT020 BKN100 26/21 Q1013
Loading
Personal Weather Stations






























Interactive Weather Map
Tropical Storm Tracking
New forecast layout! Learn more

10-Day Weather Forecast

Advertisements
Track Severe Weather on mobile